Time;durP1;ratioP1;P1;durP2;ratioP2;P2;SDS_P1;SDS_P2;PMS_P1;PMS_P2;Temp;Humidity;BMP_temperature;BMP_pressure;BME280_temperature;BME280_humidity;BME280_pressure;Samples;Min_cycle;Max_cycle;Signal;HPM_P1;HPM_P2
2022/09/09 00:01:39;;;;;;;5.07;2.50;;;11.30;99.90;;;;;;4994217;28;20038;-73
2022/09/09 00:04:17;;;;;;;0.50;0.50;;;11.30;99.90;;;;;;5008611;28;20414;-71
2022/09/09 00:07:11;;;;;;;0.57;0.57;;;11.30;99.90;;;;;;5007735;28;20030;-72
2022/09/09 00:09:43;;;;;;;0.50;0.50;;;11.30;99.90;;;;;;5015593;28;20038;-71
2022/09/09 00:12:14;;;;;;;1.98;1.85;;;11.20;99.90;;;;;;5006371;28;20079;-71
2022/09/09 00:15:11;;;;;;;1.33;1.25;;;11.20;99.90;;;;;;5006298;28;20024;-72
2022/09/09 00:17:47;;;;;;;1.38;1.05;;;11.10;99.90;;;;;;4994251;28;20492;-73
2022/09/09 00:20:24;;;;;;;0.85;0.63;;;11.10;99.90;;;;;;4988123;28;20033;-73
2022/09/09 00:22:59;;;;;;;0.70;0.70;;;11.10;99.90;;;;;;4989223;28;20030;-72
2022/09/09 00:26:07;;;;;;;9.90;0.95;;;11.10;99.90;;;;;;4987558;28;20030;-73
2022/09/09 00:28:40;;;;;;;0.70;0.67;;;11.00;99.90;;;;;;5014652;28;20050;-72
2022/09/09 00:31:23;;;;;;;0.40;0.40;;;10.90;99.90;;;;;;4986518;28;20362;-73
2022/09/09 00:33:50;;;;;;;1.38;1.27;;;10.90;99.90;;;;;;4968353;28;20038;-73
2022/09/09 00:36:22;;;;;;;0.82;0.82;;;10.90;99.90;;;;;;4979971;28;20038;-73
2022/09/09 00:39:00;;;;;;;3.53;2.05;;;10.90;99.90;;;;;;4997003;28;20029;-72
2022/09/09 00:41:28;;;;;;;;;;;10.90;99.90;;;;;;5006569;28;20030;-73
2022/09/09 00:44:23;;;;;;;0.88;0.82;;;10.90;99.90;;;;;;5005308;28;19925;-72
2022/09/09 00:47:13;;;;;;;1.27;1.25;;;10.90;99.90;;;;;;5037708;28;20056;-72
2022/09/09 00:49:57;;;;;;;2.50;1.30;;;10.90;99.90;;;;;;5004078;28;20729;-72
2022/09/09 00:52:25;;;;;;;0.82;0.77;;;10.80;99.90;;;;;;5007103;28;20026;-73
2022/09/09 00:55:16;;;;;;;1.00;0.90;;;10.80;99.90;;;;;;5004212;28;20041;-74
2022/09/09 00:57:42;;;;;;;0.55;0.55;;;10.80;99.90;;;;;;5007692;28;20101;-73
2022/09/09 01:00:24;;;;;;;0.60;0.60;;;10.70;99.90;;;;;;5005542;28;20434;-73
2022/09/09 01:02:58;;;;;;;0.63;0.63;;;10.80;99.90;;;;;;5005358;28;20053;-73
2022/09/09 01:05:33;;;;;;;0.55;0.55;;;10.80;99.90;;;;;;5006971;28;20405;-73
2022/09/09 01:08:02;;;;;;;5.78;1.52;;;10.90;99.90;;;;;;4999626;28;20084;-75
2022/09/09 01:10:46;;;;;;;2.38;1.85;;;10.80;99.90;;;;;;4987718;28;20037;-72
2022/09/09 01:13:26;;;;;;;2.92;0.93;;;10.90;99.90;;;;;;4987669;28;20038;-73
2022/09/09 01:15:53;;;;;;;2.38;1.55;;;10.90;99.90;;;;;;4985989;28;20133;-73
2022/09/09 01:18:28;;;;;;;0.55;0.55;;;10.90;99.90;;;;;;4991736;28;20230;-72
2022/09/09 01:21:33;;;;;;;0.30;0.30;;;10.80;99.90;;;;;;5005423;28;20038;-72
2022/09/09 01:24:13;;;;;;;0.30;0.30;;;10.70;99.90;;;;;;4993110;28;20117;-72
2022/09/09 01:26:47;;;;;;;0.32;0.32;;;10.70;99.90;;;;;;4987721;28;20031;-72
2022/09/09 01:29:15;;;;;;;0.85;0.85;;;10.70;99.90;;;;;;4988949;28;20476;-72
2022/09/09 01:31:52;;;;;;;0.82;0.82;;;10.60;99.90;;;;;;4987241;28;20043;-72
2022/09/09 01:34:18;;;;;;;0.40;0.40;;;10.80;99.90;;;;;;4987380;28;20034;-72
2022/09/09 01:37:02;;;;;;;0.73;0.73;;;10.50;99.90;;;;;;4987904;28;20555;-73
2022/09/09 01:39:28;;;;;;;0.75;0.75;;;10.50;99.90;;;;;;4971403;28;20100;-72
2022/09/09 01:41:55;;;;;;;0.57;0.57;;;10.50;99.90;;;;;;4971695;28;20031;-73
2022/09/09 01:44:23;;;;;;;0.60;0.60;;;10.50;99.90;;;;;;4971064;28;20299;-72
2022/09/09 01:46:48;;;;;;;0.40;0.40;;;10.40;99.90;;;;;;4971382;28;20346;-72
2022/09/09 01:49:15;;;;;;;1.83;1.70;;;10.40;99.90;;;;;;4987397;28;20587;-73
2022/09/09 01:51:43;;;;;;;0.63;0.63;;;10.30;99.90;;;;;;5007526;28;20118;-73
2022/09/09 01:54:09;;;;;;;1.35;1.25;;;10.20;99.90;;;;;;4992708;28;20027;-73
2022/09/09 01:56:43;;;;;;;3.10;0.80;;;10.40;99.90;;;;;;4990645;28;20049;-73
2022/09/09 01:59:44;;;;;;;0.40;0.40;;;10.20;99.90;;;;;;4989869;28;20027;-72
2022/09/09 02:02:17;;;;;;;0.40;0.40;;;10.20;99.90;;;;;;4990369;28;20031;-72
2022/09/09 02:04:49;;;;;;;0.55;0.55;;;10.10;99.90;;;;;;4990246;28;20054;-73
2022/09/09 02:07:39;;;;;;;0.82;0.82;;;10.10;99.90;;;;;;4998216;28;20030;-72
2022/09/09 02:10:16;;;;;;;0.85;0.85;;;10.10;99.90;;;;;;5009913;28;20497;-72
2022/09/09 02:12:48;;;;;;;0.40;0.40;;;10.00;99.90;;;;;;5010177;28;20517;-72
2022/09/09 02:15:39;;;;;;;0.40;0.40;;;10.00;99.90;;;;;;5009713;28;20033;-72
2022/09/09 02:18:08;;;;;;;0.40;0.40;;;10.00;99.90;;;;;;5007744;28;20087;-72
2022/09/09 02:20:36;;;;;;;0.73;0.73;;;10.00;99.90;;;;;;5008394;28;20030;-72
2022/09/09 02:23:03;;;;;;;0.60;0.60;;;10.00;99.90;;;;;;4997157;28;20034;-73
2022/09/09 02:25:30;;;;;;;0.85;0.85;;;9.90;99.90;;;;;;4988708;28;20057;-73
2022/09/09 02:28:00;;;;;;;0.40;0.40;;;9.90;99.90;;;;;;4990959;28;20525;-73
2022/09/09 02:30:29;;;;;;;0.52;0.52;;;10.00;99.90;;;;;;4998423;28;20018;-73
2022/09/09 02:32:58;;;;;;;0.40;0.40;;;10.00;99.90;;;;;;5009339;28;20054;-73
2022/09/09 02:35:26;;;;;;;0.80;0.80;;;10.10;99.90;;;;;;5009602;28;20040;-73
2022/09/09 02:37:55;;;;;;;0.88;0.88;;;10.00;99.90;;;;;;4992210;28;20030;-72
2022/09/09 02:40:21;;;;;;;0.32;0.32;;;9.90;99.90;;;;;;4989743;28;20022;-72
2022/09/09 02:42:48;;;;;;;0.50;0.50;;;9.90;99.90;;;;;;4989749;28;20092;-72
2022/09/09 02:45:17;;;;;;;1.02;1.00;;;9.90;99.90;;;;;;4989645;28;20030;-72
2022/09/09 02:48:16;;;;;;;0.40;0.40;;;9.80;99.90;;;;;;4990235;28;20042;-72
2022/09/09 02:51:04;;;;;;;0.45;0.45;;;9.70;99.90;;;;;;4989413;28;20512;-72
2022/09/09 02:53:43;;;;;;;0.40;0.40;;;9.70;99.90;;;;;;4988238;28;20027;-73
2022/09/09 02:56:15;;;;;;;0.30;0.30;;;9.70;99.90;;;;;;4989999;28;20485;-73
2022/09/09 02:58:42;;;;;;;0.50;0.50;;;9.70;99.90;;;;;;4989043;28;20062;-73
2022/09/09 03:01:08;;;;;;;0.50;0.50;;;9.60;99.90;;;;;;4988146;28;20569;-73
2022/09/09 03:03:34;;;;;;;0.40;0.40;;;9.60;99.90;;;;;;4989370;28;20117;-73
2022/09/09 03:06:00;;;;;;;0.50;0.50;;;9.60;99.90;;;;;;4994268;28;20433;-73
2022/09/09 03:08:27;;;;;;;0.83;0.83;;;9.60;99.90;;;;;;5008881;28;20030;-73
2022/09/09 03:10:54;;;;;;;0.38;0.38;;;9.50;99.90;;;;;;5007431;28;20283;-72
2022/09/09 03:13:20;;;;;;;0.35;0.35;;;9.50;99.90;;;;;;5009020;28;20029;-73
2022/09/09 03:15:48;;;;;;;0.40;0.40;;;9.50;99.90;;;;;;5008301;28;20030;-73
2022/09/09 03:18:13;;;;;;;3.85;0.73;;;9.50;99.90;;;;;;4973718;28;20041;-72
2022/09/09 03:20:41;;;;;;;1.13;1.13;;;9.50;99.90;;;;;;4989091;28;20038;-72
2022/09/09 03:23:07;;;;;;;0.63;0.63;;;9.50;99.90;;;;;;5008844;28;20488;-73
2022/09/09 03:25:33;;;;;;;0.57;0.57;;;9.50;99.90;;;;;;5008589;28;20026;-73
2022/09/09 03:27:59;;;;;;;0.50;0.50;;;9.80;99.90;;;;;;5005265;28;20034;-73
2022/09/09 03:30:26;;;;;;;1.17;1.17;;;9.40;99.90;;;;;;5006941;28;20022;-73
2022/09/09 03:32:52;;;;;;;1.65;0.95;;;9.50;99.90;;;;;;5006840;28;20370;-72
2022/09/09 03:35:18;;;;;;;0.90;0.87;;;9.40;99.90;;;;;;5003851;28;20037;-73
2022/09/09 03:37:44;;;;;;;0.60;0.60;;;9.40;99.90;;;;;;4989341;28;20129;-73
2022/09/09 03:40:10;;;;;;;0.57;0.57;;;9.40;99.90;;;;;;4987623;28;20248;-73
2022/09/09 03:42:39;;;;;;;1.20;1.10;;;9.50;99.90;;;;;;4988792;28;20074;-73
2022/09/09 03:45:06;;;;;;;0.47;0.47;;;9.50;99.90;;;;;;4987141;28;20046;-73
2022/09/09 03:47:32;;;;;;;0.73;0.73;;;9.50;99.90;;;;;;4990257;28;20034;-73
2022/09/09 03:49:57;;;;;;;2.00;1.03;;;9.50;99.90;;;;;;4988227;28;20035;-71
2022/09/09 03:52:25;;;;;;;0.57;0.57;;;9.50;99.90;;;;;;5006913;28;20108;-73
2022/09/09 03:54:52;;;;;;;0.95;0.95;;;9.60;99.90;;;;;;4995051;28;20034;-73
2022/09/09 03:57:18;;;;;;;0.70;0.70;;;9.60;99.90;;;;;;4977128;28;20042;-72
2022/09/09 03:59:44;;;;;;;0.70;0.70;;;9.90;99.90;;;;;;4968924;28;20039;-73
2022/09/09 04:02:10;;;;;;;0.83;0.83;;;9.60;99.90;;;;;;4969403;28;20049;-73
2022/09/09 04:04:35;;;;;;;1.23;1.17;;;9.70;99.90;;;;;;4985519;28;20059;-71
2022/09/09 04:07:02;;;;;;;0.50;0.50;;;9.70;99.90;;;;;;4988665;28;20115;-72
2022/09/09 04:09:28;;;;;;;0.40;0.40;;;9.70;99.90;;;;;;4988349;28;20018;-71
2022/09/09 04:11:54;;;;;;;0.40;0.40;;;9.60;99.90;;;;;;4988581;28;20367;-72
2022/09/09 04:14:20;;;;;;;0.40;0.40;;;9.60;99.90;;;;;;4988246;28;20485;-72
2022/09/09 04:16:46;;;;;;;0.40;0.40;;;9.70;99.90;;;;;;4987607;28;20035;-71
2022/09/09 04:19:13;;;;;;;0.77;0.77;;;9.60;99.90;;;;;;4988187;28;20042;-72
2022/09/09 04:21:40;;;;;;;2.20;1.38;;;9.60;99.90;;;;;;5003987;28;20030;-72
2022/09/09 04:24:07;;;;;;;;;;;9.60;99.90;;;;;;5006930;28;20062;-72
2022/09/09 04:26:33;;;;;;;0.60;0.60;;;9.60;99.90;;;;;;5005971;28;20395;-72
2022/09/09 04:28:59;;;;;;;0.73;0.73;;;9.50;99.90;;;;;;5006342;28;20378;-72
2022/09/09 04:31:24;;;;;;;0.40;0.40;;;9.50;99.90;;;;;;5008330;28;20321;-72
2022/09/09 04:33:50;;;;;;;0.40;0.40;;;9.50;99.90;;;;;;5007988;28;20026;-72
2022/09/09 04:36:18;;;;;;;1.10;1.10;;;9.50;99.90;;;;;;4989336;28;20458;-72
2022/09/09 04:38:44;;;;;;;0.40;0.40;;;9.90;99.90;;;;;;4987300;28;20031;-72
2022/09/09 04:41:11;;;;;;;0.40;0.40;;;9.50;99.90;;;;;;4988176;28;20026;-73
2022/09/09 04:43:37;;;;;;;1.17;1.15;;;9.50;99.90;;;;;;4987592;28;20103;-73
2022/09/09 04:46:03;;;;;;;0.82;0.82;;;9.50;99.90;;;;;;4999091;28;20242;-73
2022/09/09 04:48:30;;;;;;;0.50;0.50;;;9.60;99.90;;;;;;5007408;28;20022;-72
2022/09/09 04:50:58;;;;;;;0.40;0.40;;;9.70;99.90;;;;;;4993175;28;20045;-72
2022/09/09 04:53:25;;;;;;;0.65;0.60;;;9.70;99.90;;;;;;4987659;28;20150;-71
2022/09/09 04:55:51;;;;;;;;;;;9.80;99.90;;;;;;4989014;28;20038;-71
2022/09/09 04:58:17;;;;;;;0.40;0.40;;;9.90;99.90;;;;;;4987766;28;19909;-72
2022/09/09 05:00:42;;;;;;;0.83;0.83;;;10.00;99.90;;;;;;4988084;28;20381;-73
2022/09/09 05:03:11;;;;;;;1.30;0.70;;;10.30;99.90;;;;;;4987690;28;20030;-73
2022/09/09 05:05:37;;;;;;;0.30;0.30;;;10.40;99.90;;;;;;4987686;28;20037;-72
2022/09/09 05:08:08;;;;;;;0.53;0.53;;;10.30;99.90;;;;;;4987688;28;20490;-73
2022/09/09 05:10:36;;;;;;;0.30;0.30;;;10.30;99.90;;;;;;4986299;28;20129;-72
2022/09/09 05:13:01;;;;;;;0.98;0.98;;;10.40;99.90;;;;;;4986855;28;20466;-72
2022/09/09 05:15:27;;;;;;;0.53;0.53;;;10.60;99.90;;;;;;4988195;28;20034;-72
2022/09/09 05:17:57;;;;;;;0.70;0.70;;;10.60;99.90;;;;;;4988665;28;20113;-73
2022/09/09 05:20:23;;;;;;;1.00;1.00;;;10.60;99.90;;;;;;5000028;28;20040;-73
2022/09/09 05:22:53;;;;;;;0.93;0.93;;;10.60;99.90;;;;;;4986076;28;20031;-73
2022/09/09 05:25:19;;;;;;;0.55;0.55;;;10.60;99.90;;;;;;4984783;28;20504;-73
2022/09/09 05:27:45;;;;;;;3.53;1.53;;;10.60;99.90;;;;;;4968225;28;20039;-73
2022/09/09 05:30:11;;;;;;;0.40;0.40;;;10.60;99.90;;;;;;4967883;28;20461;-72
2022/09/09 05:32:36;;;;;;;0.67;0.67;;;10.70;99.90;;;;;;4968363;28;20031;-72
2022/09/09 05:35:02;;;;;;;0.40;0.40;;;10.80;99.90;;;;;;4999480;28;20533;-72
2022/09/09 05:37:30;;;;;;;0.68;0.68;;;10.80;99.90;;;;;;5007252;28;20038;-73
2022/09/09 05:39:55;;;;;;;0.88;0.88;;;10.70;99.90;;;;;;5005262;28;20504;-72
2022/09/09 05:42:21;;;;;;;0.40;0.40;;;10.70;99.90;;;;;;5005386;28;20030;-73
2022/09/09 05:44:46;;;;;;;0.50;0.50;;;10.80;99.90;;;;;;5003145;28;20101;-73
2022/09/09 05:47:12;;;;;;;0.67;0.67;;;10.90;99.90;;;;;;5007258;28;20023;-72
2022/09/09 05:49:38;;;;;;;0.50;0.50;;;11.00;99.90;;;;;;4995968;28;20129;-72
2022/09/09 05:52:03;;;;;;;0.30;0.30;;;11.10;99.90;;;;;;4986220;28;20104;-73
2022/09/09 05:54:29;;;;;;;0.53;0.53;;;11.30;99.90;;;;;;4989221;28;20441;-73
2022/09/09 05:56:55;;;;;;;0.40;0.40;;;11.50;99.90;;;;;;5005436;28;20034;-73
2022/09/09 05:59:23;;;;;;;0.40;0.40;;;11.70;99.90;;;;;;4994046;28;20042;-73
2022/09/09 06:01:48;;;;;;;6.22;1.85;;;11.80;99.90;;;;;;4967654;28;20431;-72
2022/09/09 06:04:14;;;;;;;3.63;1.50;;;11.80;99.90;;;;;;4976685;28;20050;-72
2022/09/09 06:06:41;;;;;;;0.67;0.67;;;11.80;99.90;;;;;;4985979;28;20038;-72
2022/09/09 06:09:09;;;;;;;;;;;11.80;99.90;;;;;;4986011;28;20497;-73
2022/09/09 06:11:36;;;;;;;;;;;11.90;99.90;;;;;;4985942;28;19914;-73
2022/09/09 06:14:02;;;;;;;0.60;0.60;;;12.00;99.90;;;;;;4985075;28;19917;-73
2022/09/09 06:16:29;;;;;;;1.45;1.35;;;12.20;99.90;;;;;;4967636;28;20490;-72
2022/09/09 06:18:56;;;;;;;;;;;12.40;99.90;;;;;;4982085;28;20041;-73
2022/09/09 06:21:23;;;;;;;0.65;0.65;;;12.40;99.90;;;;;;5006349;28;19949;-72
2022/09/09 06:23:50;;;;;;;0.88;0.82;;;12.40;99.90;;;;;;5005146;28;20110;-73
2022/09/09 06:26:18;;;;;;;0.55;0.55;;;12.40;99.90;;;;;;5008296;28;20044;-73
2022/09/09 06:28:45;;;;;;;0.80;0.80;;;12.30;99.90;;;;;;5009890;28;20026;-72
2022/09/09 06:31:13;;;;;;;0.30;0.30;;;12.30;99.90;;;;;;5004311;28;20026;-72
2022/09/09 06:33:44;;;;;;;1.05;0.82;;;12.50;99.90;;;;;;4991504;28;20027;-72
2022/09/09 06:36:15;;;;;;;0.52;0.52;;;12.60;99.90;;;;;;5006545;28;20041;-72
2022/09/09 06:38:42;;;;;;;2.78;1.13;;;12.70;99.90;;;;;;5009348;28;20026;-73
2022/09/09 06:41:09;;;;;;;0.40;0.40;;;12.90;99.90;;;;;;5009812;28;20398;-73
2022/09/09 06:43:35;;;;;;;0.40;0.40;;;13.20;99.90;;;;;;4996306;28;20505;-73
2022/09/09 06:46:17;;;;;;;1.03;0.97;;;13.30;99.90;;;;;;4989649;28;20039;-73
2022/09/09 06:48:46;;;;;;;0.60;0.60;;;13.40;99.90;;;;;;4985549;28;20058;-73
2022/09/09 06:51:23;;;;;;;0.40;0.40;;;13.60;99.90;;;;;;4979818;28;20026;-74
2022/09/09 06:53:54;;;;;;;5.33;0.87;;;13.80;99.90;;;;;;4981808;28;20031;-73
2022/09/09 06:56:40;;;;;;;0.40;0.40;;;13.70;99.90;;;;;;4970701;28;20273;-71
2022/09/09 06:59:08;;;;;;;0.80;0.80;;;13.70;99.90;;;;;;4978192;28;20368;-73
2022/09/09 07:01:37;;;;;;;0.50;0.50;;;13.80;99.90;;;;;;4970126;28;20694;-73
2022/09/09 07:04:04;;;;;;;0.40;0.40;;;14.10;99.90;;;;;;4972872;28;20458;-72
2022/09/09 07:06:32;;;;;;;0.40;0.40;;;14.20;99.90;;;;;;5005468;28;20038;-72
2022/09/09 07:09:00;;;;;;;0.88;0.88;;;14.20;99.90;;;;;;4989251;28;20022;-71
2022/09/09 07:11:28;;;;;;;0.85;0.82;;;14.00;99.90;;;;;;4987871;28;20035;-72
2022/09/09 07:13:54;;;;;;;1.50;0.88;;;13.80;99.90;;;;;;5000310;28;20022;-72
2022/09/09 07:16:24;;;;;;;0.87;0.87;;;13.70;99.90;;;;;;5007193;28;20093;-72
2022/09/09 07:18:50;;;;;;;0.35;0.35;;;13.70;99.90;;;;;;5008580;28;20025;-72
2022/09/09 07:21:17;;;;;;;0.40;0.40;;;13.90;99.90;;;;;;5005638;28;20090;-74
2022/09/09 07:23:43;;;;;;;0.50;0.50;;;14.10;99.90;;;;;;5008648;28;20032;-72
2022/09/09 07:26:14;;;;;;;0.67;0.67;;;14.00;99.90;;;;;;5008695;28;20128;-73
2022/09/09 07:28:41;;;;;;;0.30;0.30;;;14.10;99.90;;;;;;5001129;28;20411;-73
2022/09/09 07:31:13;;;;;;;0.30;0.30;;;14.30;99.90;;;;;;4987595;28;20058;-73
2022/09/09 07:33:40;;;;;;;0.75;0.75;;;14.50;99.90;;;;;;4987366;28;20030;-72
2022/09/09 07:36:13;;;;;;;0.43;0.40;;;14.50;99.90;;;;;;4974694;28;20035;-72
2022/09/09 07:38:40;;;;;;;0.45;0.45;;;14.60;99.90;;;;;;4973805;28;20129;-73
2022/09/09 07:41:11;;;;;;;1.10;1.10;;;14.70;99.90;;;;;;4987495;28;20480;-74
2022/09/09 07:43:41;;;;;;;26.52;1.70;;;15.00;99.90;;;;;;4989714;28;20050;-68
2022/09/09 07:46:08;;;;;;;0.40;0.40;;;15.20;99.90;;;;;;4969499;28;20038;-68
2022/09/09 07:48:34;;;;;;;0.57;0.57;;;15.30;99.90;;;;;;4967641;28;20029;-68
2022/09/09 07:51:06;;;;;;;0.50;0.50;;;15.40;99.90;;;;;;4970979;28;20035;-68
2022/09/09 07:53:32;;;;;;;0.52;0.52;;;15.60;99.90;;;;;;4969159;28;20148;-68
2022/09/09 07:56:09;;;;;;;0.60;0.60;;;15.80;99.90;;;;;;4980111;28;20081;-68
2022/09/09 07:58:36;;;;;;;;;;;15.70;99.90;;;;;;4975358;28;20044;-69
2022/09/09 08:01:08;;;;;;;0.35;0.35;;;15.70;99.90;;;;;;4973166;28;20365;-67
2022/09/09 08:03:33;;;;;;;0.52;0.52;;;15.50;99.90;;;;;;4968897;28;20418;-69
2022/09/09 08:06:07;;;;;;;0.43;0.43;;;15.70;99.90;;;;;;4980510;28;20109;-69
2022/09/09 08:08:35;;;;;;;0.60;0.60;;;15.80;99.90;;;;;;4989787;28;20031;-69
2022/09/09 08:11:14;;;;;;;0.35;0.35;;;15.90;99.70;;;;;;4988150;28;20114;-69
2022/09/09 08:13:40;;;;;;;0.45;0.45;;;16.00;99.30;;;;;;4988122;28;20466;-69
2022/09/09 08:16:17;;;;;;;0.40;0.40;;;16.00;99.30;;;;;;5007759;28;20065;-68
2022/09/09 08:18:43;;;;;;;0.52;0.52;;;16.00;98.40;;;;;;5007791;28;20500;-69
2022/09/09 08:21:14;;;;;;;4.13;1.50;;;15.90;98.80;;;;;;4998064;28;20424;-69
2022/09/09 08:23:41;;;;;;;0.40;0.40;;;16.10;98.60;;;;;;4987930;28;20541;-69
2022/09/09 08:26:10;;;;;;;;;;;16.00;98.70;;;;;;4988309;28;20379;-68
2022/09/09 08:28:35;;;;;;;0.30;0.30;;;16.10;98.00;;;;;;4986740;28;20424;-69
2022/09/09 08:31:16;;;;;;;4.40;0.90;;;16.20;98.00;;;;;;5006488;28;20102;-68
2022/09/09 08:33:45;;;;;;;0.30;0.30;;;16.40;97.40;;;;;;5007723;28;20099;-68
2022/09/09 08:36:17;;;;;;;0.30;0.30;;;16.50;97.00;;;;;;5005265;28;20040;-67
2022/09/09 08:38:43;;;;;;;0.50;0.50;;;16.30;97.40;;;;;;5005458;28;20041;-67
2022/09/09 08:41:36;;;;;;;0.30;0.30;;;16.30;97.10;;;;;;5006955;28;20536;-68
2022/09/09 08:44:32;;;;;;;0.50;0.50;;;16.50;97.60;;;;;;5005605;28;20561;-67
2022/09/09 08:47:36;;;;;;;0.55;0.55;;;16.50;97.10;;;;;;4987365;28;20035;-68
2022/09/09 08:50:29;;;;;;;0.30;0.30;;;16.60;97.30;;;;;;4987476;28;20464;-67
2022/09/09 08:53:16;;;;;;;0.57;0.57;;;16.80;96.30;;;;;;5005430;28;20026;-68
2022/09/09 08:55:52;;;;;;;0.43;0.43;;;17.40;96.10;;;;;;5006677;28;20044;-68
2022/09/09 08:58:25;;;;;;;0.30;0.30;;;17.70;95.60;;;;;;5006902;28;20541;-68
2022/09/09 09:01:04;;;;;;;0.50;0.50;;;17.90;94.30;;;;;;4993343;28;20034;-68
2022/09/09 09:03:48;;;;;;;0.30;0.30;;;18.00;94.00;;;;;;4987250;28;20535;-67
2022/09/09 09:06:38;;;;;;;0.40;0.40;;;18.20;93.70;;;;;;4988318;28;20042;-67
2022/09/09 09:09:37;;;;;;;1.27;0.45;;;17.90;92.60;;;;;;4988609;28;20031;-68
2022/09/09 09:12:28;;;;;;;0.95;0.95;;;17.70;93.30;;;;;;4987578;28;20042;-69
2022/09/09 09:14:56;;;;;;;0.40;0.40;;;17.70;93.20;;;;;;4991016;28;20049;-68
2022/09/09 09:17:24;;;;;;;0.30;0.30;;;17.70;93.10;;;;;;5005305;28;20034;-69
2022/09/09 09:19:50;;;;;;;0.30;0.30;;;17.40;93.20;;;;;;5006928;28;20473;-69
2022/09/09 09:22:25;;;;;;;7.30;1.70;;;17.40;92.80;;;;;;5005280;28;20045;-70
2022/09/09 09:24:55;;;;;;;0.30;0.30;;;17.60;92.80;;;;;;5006485;28;20037;-68
2022/09/09 09:27:35;;;;;;;0.30;0.30;;;17.90;92.60;;;;;;5006968;28;20041;-68
2022/09/09 09:30:13;;;;;;;0.40;0.40;;;18.10;92.00;;;;;;5003424;28;20152;-68
2022/09/09 09:32:42;;;;;;;0.50;0.50;;;18.30;91.50;;;;;;4987290;28;20041;-68
2022/09/09 09:35:13;;;;;;;0.40;0.40;;;18.40;91.60;;;;;;4986760;28;20026;-69
2022/09/09 09:37:41;;;;;;;0.68;0.68;;;18.50;90.30;;;;;;4988204;28;20034;-70
2022/09/09 09:40:16;;;;;;;0.77;0.77;;;18.50;90.10;;;;;;4988056;28;20390;-69
2022/09/09 09:42:56;;;;;;;0.30;0.30;;;18.20;90.20;;;;;;4987032;28;20295;-69
2022/09/09 09:45:44;;;;;;;0.55;0.55;;;18.00;90.40;;;;;;4990072;28;20030;-69
2022/09/09 09:48:11;;;;;;;0.30;0.30;;;17.70;89.60;;;;;;5006230;28;20374;-69
2022/09/09 09:50:49;;;;;;;0.50;0.50;;;17.60;90.20;;;;;;5006347;28;20079;-69
2022/09/09 09:53:33;;;;;;;0.73;0.73;;;17.60;90.20;;;;;;5004615;28;20030;-70
2022/09/09 09:56:07;;;;;;;1.73;0.98;;;17.70;90.40;;;;;;5006145;28;20046;-69
2022/09/09 09:58:49;;;;;;;0.30;0.30;;;17.80;90.30;;;;;;5007785;28;20082;-69
2022/09/09 10:01:21;;;;;;;1.23;0.90;;;18.10;90.30;;;;;;5000625;28;20470;-69
2022/09/09 10:03:51;;;;;;;0.63;0.63;;;18.30;89.30;;;;;;4990068;28;20473;-68
2022/09/09 10:06:17;;;;;;;0.40;0.40;;;18.50;88.40;;;;;;4990097;28;20385;-68
2022/09/09 10:08:49;;;;;;;0.50;0.50;;;18.50;87.90;;;;;;4991002;28;20041;-70
2022/09/09 10:11:21;;;;;;;0.30;0.30;;;18.70;88.10;;;;;;4991009;28;20035;-69
2022/09/09 10:14:10;;;;;;;0.30;0.30;;;18.40;87.70;;;;;;4989654;28;20030;-68
2022/09/09 10:16:41;;;;;;;0.50;0.50;;;18.40;87.20;;;;;;4999411;28;20113;-68
2022/09/09 10:19:15;;;;;;;0.45;0.45;;;18.70;86.30;;;;;;5009190;28;20026;-69
2022/09/09 10:21:57;;;;;;;0.50;0.50;;;18.90;85.30;;;;;;5009499;28;20034;-69
2022/09/09 10:24:45;;;;;;;0.40;0.40;;;19.10;85.40;;;;;;5006343;28;20420;-68
2022/09/09 10:27:39;;;;;;;0.30;0.30;;;19.20;85.50;;;;;;5009508;28;20041;-68
2022/09/09 10:30:39;;;;;;;1.00;0.60;;;19.10;84.60;;;;;;5008965;28;20057;-68
2022/09/09 10:33:32;;;;;;;2.05;0.82;;;18.90;85.60;;;;;;4970196;28;20075;-67
2022/09/09 10:36:18;;;;;;;0.40;0.40;;;19.10;85.00;;;;;;4969936;28;20042;-67
2022/09/09 10:38:52;;;;;;;0.40;0.40;;;19.30;83.90;;;;;;4995015;28;20385;-67
2022/09/09 10:41:23;;;;;;;1.17;0.60;;;19.50;83.30;;;;;;5007631;28;20423;-69
2022/09/09 10:44:10;;;;;;;0.30;0.30;;;19.50;82.00;;;;;;5007175;28;20567;-69
2022/09/09 10:46:54;;;;;;;0.30;0.30;;;19.30;82.30;;;;;;5009165;28;20199;-69
2022/09/09 10:49:54;;;;;;;0.55;0.55;;;19.40;81.10;;;;;;5005827;28;20162;-70
2022/09/09 10:52:50;;;;;;;0.30;0.30;;;18.80;79.20;;;;;;5009251;28;20035;-69
2022/09/09 10:55:25;;;;;;;0.30;0.30;;;18.90;79.70;;;;;;4989551;28;20037;-69
2022/09/09 10:57:53;;;;;;;0.30;0.30;;;18.90;77.40;;;;;;4989137;28;20034;-69
2022/09/09 11:00:41;;;;;;;0.40;0.40;;;19.10;78.80;;;;;;4988492;28;20325;-70
2022/09/09 11:03:18;;;;;;;0.60;0.60;;;18.90;78.30;;;;;;4989088;28;20064;-67
2022/09/09 11:05:49;;;;;;;0.38;0.38;;;18.80;77.90;;;;;;4988971;28;20517;-68
2022/09/09 11:08:19;;;;;;;0.32;0.32;;;18.70;78.50;;;;;;5000601;28;20038;-69
2022/09/09 11:11:39;;;;;;;2.03;0.75;;;18.70;79.80;;;;;;5007436;28;20118;-68
2022/09/09 11:14:24;;;;;;;0.32;0.32;;;18.60;80.00;;;;;;5088713;28;20404;-69
2022/09/09 11:16:51;;;;;;;1.60;0.52;;;18.70;79.30;;;;;;5088507;28;20035;-69
2022/09/09 11:19:39;;;;;;;0.30;0.30;;;18.60;78.40;;;;;;4997802;28;20035;-69
2022/09/09 11:22:33;;;;;;;0.30;0.30;;;18.70;78.80;;;;;;4968180;28;20478;-69
2022/09/09 11:25:16;;;;;;;0.30;0.30;;;18.80;79.50;;;;;;4987238;28;20473;-69
2022/09/09 11:27:42;;;;;;;0.70;0.70;;;18.70;78.20;;;;;;4986162;28;20042;-68
2022/09/09 11:30:26;;;;;;;0.30;0.30;;;18.60;78.20;;;;;;4988342;28;20027;-69
2022/09/09 11:33:12;;;;;;;0.50;0.50;;;18.50;79.00;;;;;;4988510;28;20039;-68
2022/09/09 11:35:58;;;;;;;0.52;0.52;;;18.50;79.50;;;;;;4988787;28;20064;-68
2022/09/09 11:38:46;;;;;;;0.50;0.50;;;18.70;78.80;;;;;;4972226;28;20038;-69
2022/09/09 11:41:15;;;;;;;1.25;1.15;;;18.90;77.80;;;;;;4969463;28;20063;-68
2022/09/09 11:43:46;;;;;;;0.30;0.30;;;18.90;78.40;;;;;;4969153;28;20064;-68
2022/09/09 11:46:17;;;;;;;0.30;0.30;;;18.80;78.50;;;;;;4967448;28;20466;-69
2022/09/09 11:48:58;;;;;;;0.30;0.30;;;18.40;80.20;;;;;;4969063;28;20031;-69
2022/09/09 11:51:23;;;;;;;0.30;0.30;;;18.30;80.20;;;;;;4969146;28;20066;-69
2022/09/09 11:54:02;;;;;;;0.30;0.30;;;18.40;80.10;;;;;;4970380;28;20438;-68
2022/09/09 11:56:51;;;;;;;0.85;0.75;;;18.50;79.50;;;;;;4969001;28;20041;-68
2022/09/09 11:59:29;;;;;;;0.45;0.45;;;18.40;79.40;;;;;;4967430;28;20085;-69
2022/09/09 12:02:18;;;;;;;0.98;0.60;;;18.20;80.90;;;;;;4969107;28;20038;-69
2022/09/09 12:04:50;;;;;;;0.30;0.30;;;18.20;81.50;;;;;;4985646;28;20414;-69
2022/09/09 12:07:29;;;;;;;0.95;0.77;;;18.10;82.00;;;;;;4985005;28;20033;-69
2022/09/09 12:09:57;;;;;;;0.60;0.60;;;18.20;82.00;;;;;;4969149;28;20363;-69
2022/09/09 12:12:32;;;;;;;0.50;0.50;;;18.40;81.50;;;;;;4969198;28;20027;-69
2022/09/09 12:15:07;;;;;;;0.32;0.32;;;18.40;81.10;;;;;;4986594;28;20115;-70
2022/09/09 12:17:42;;;;;;;0.30;0.30;;;18.40;80.90;;;;;;4988370;28;20046;-68
2022/09/09 12:20:19;;;;;;;0.40;0.40;;;18.30;81.70;;;;;;4987837;28;20076;-68
2022/09/09 12:23:03;;;;;;;1.08;0.98;;;18.30;81.80;;;;;;4975218;28;20118;-69
2022/09/09 12:25:53;;;;;;;0.30;0.30;;;18.30;82.40;;;;;;4968268;28;20704;-68
2022/09/09 12:28:23;;;;;;;0.30;0.30;;;18.30;83.10;;;;;;4968300;28;20071;-69
2022/09/09 12:30:58;;;;;;;0.40;0.40;;;18.30;82.20;;;;;;4968667;28;20043;-73
2022/09/09 12:33:24;;;;;;;0.40;0.40;;;18.30;83.20;;;;;;4980355;28;20060;-73
2022/09/09 12:35:56;;;;;;;0.30;0.30;;;18.20;82.30;;;;;;4986700;28;20153;-72
2022/09/09 12:38:36;;;;;;;0.40;0.40;;;18.10;82.50;;;;;;4972112;28;20069;-72
2022/09/09 12:41:02;;;;;;;0.60;0.60;;;17.90;83.30;;;;;;4967206;28;20041;-73
2022/09/09 12:43:28;;;;;;;0.40;0.40;;;17.80;82.70;;;;;;4969100;28;20054;-73
2022/09/09 12:46:04;;;;;;;0.40;0.40;;;17.80;83.20;;;;;;4969326;28;20117;-73
2022/09/09 12:48:41;;;;;;;0.43;0.43;;;17.60;83.00;;;;;;4966965;28;20112;-72
2022/09/09 12:51:28;;;;;;;0.73;0.73;;;17.80;82.40;;;;;;4968734;28;20031;-73
2022/09/09 12:53:54;;;;;;;0.30;0.30;;;17.70;83.00;;;;;;4967945;28;20417;-74
2022/09/09 12:56:24;;;;;;;0.30;0.30;;;17.60;83.00;;;;;;4968436;28;20035;-72
2022/09/09 12:58:51;;;;;;;0.60;0.60;;;17.50;83.30;;;;;;4966468;28;20058;-75
2022/09/09 13:01:29;;;;;;;1.17;1.13;;;17.70;83.60;;;;;;4969235;28;20419;-74
2022/09/09 13:03:55;;;;;;;;;;;17.60;82.60;;;;;;5005902;28;20405;-73
2022/09/09 13:06:29;;;;;;;0.40;0.40;;;17.50;82.70;;;;;;5004462;28;20017;-74
2022/09/09 13:08:58;;;;;;;0.30;0.30;;;17.50;83.20;;;;;;4985550;28;20042;-73
2022/09/09 13:11:29;;;;;;;0.57;0.47;;;17.50;82.70;;;;;;4987172;28;20106;-73
2022/09/09 13:13:57;;;;;;;0.30;0.30;;;17.40;83.40;;;;;;4989139;28;20026;-74
2022/09/09 13:16:29;;;;;;;0.30;0.30;;;17.30;83.70;;;;;;4986789;28;20477;-72
2022/09/09 13:18:55;;;;;;;0.32;0.32;;;17.20;83.20;;;;;;4986859;28;20070;-73
2022/09/09 13:21:34;;;;;;;0.73;0.73;;;17.20;84.00;;;;;;4995059;28;20357;-73